Time;durP1;ratioP1;P1;durP2;ratioP2;P2;SDS_P1;SDS_P2;PMS_P1;PMS_P2;Temp;Humidity;BMP_temperature;BMP_pressure;BME280_temperature;BME280_humidity;BME280_pressure;Samples;Min_cycle;Max_cycle;Signal;HPM_P1;HPM_P2
2021/03/13 00:00:13;;;;;;;8.50;2.20;;;8.00;99.90;;;;;;4155622;28;20065;-69
2021/03/13 00:02:14;;;;;;;11.88;2.60;;;7.90;99.90;;;;;;4158126;28;20038;-69
2021/03/13 00:04:14;;;;;;;9.50;2.45;;;7.90;99.90;;;;;;4161466;28;20029;-69
2021/03/13 00:06:16;;;;;;;10.48;2.50;;;7.90;99.90;;;;;;4161459;28;20037;-69
2021/03/13 00:08:17;;;;;;;10.40;2.05;;;7.90;99.90;;;;;;4161066;28;20104;-69
2021/03/13 00:10:18;;;;;;;15.18;2.58;;;7.90;99.90;;;;;;4159548;28;20057;-69
2021/03/13 00:12:23;;;;;;;9.30;1.98;;;7.90;99.90;;;;;;4136634;28;20038;-69
2021/03/13 00:14:24;;;;;;;9.55;2.53;;;7.90;99.90;;;;;;4151366;28;20046;-69
2021/03/13 00:16:25;;;;;;;6.68;2.10;;;7.90;99.90;;;;;;4151248;28;20034;-69
2021/03/13 00:18:26;;;;;;;12.77;2.85;;;7.90;99.90;;;;;;4160820;28;20077;-69
2021/03/13 00:20:29;;;;;;;10.20;2.28;;;7.90;99.90;;;;;;4157352;28;20038;-69
2021/03/13 00:22:30;;;;;;;14.98;3.05;;;7.90;99.90;;;;;;4154781;28;20039;-69
2021/03/13 00:24:31;;;;;;;10.98;2.35;;;7.90;99.90;;;;;;4156028;28;20069;-69
2021/03/13 00:26:31;;;;;;;16.55;3.17;;;7.90;99.90;;;;;;4153559;28;20444;-69
2021/03/13 00:28:32;;;;;;;10.13;2.47;;;7.90;99.90;;;;;;4158726;28;20568;-69
2021/03/13 00:30:40;;;;;;;7.07;2.35;;;7.90;99.90;;;;;;4156802;28;20042;-69
2021/03/13 00:32:43;;;;;;;10.10;2.38;;;7.90;99.90;;;;;;4156265;28;20478;-69
2021/03/13 00:34:43;;;;;;;7.78;2.15;;;7.90;99.90;;;;;;4154434;28;20041;-69
2021/03/13 00:36:50;;;;;;;11.35;2.58;;;7.90;99.90;;;;;;4160349;28;20037;-69
2021/03/13 00:38:53;;;;;;;12.63;2.83;;;7.90;99.90;;;;;;4160274;28;20644;-69
2021/03/13 00:40:58;;;;;;;5.88;1.88;;;7.90;99.90;;;;;;4136132;28;20025;-69
2021/03/13 00:43:00;;;;;;;12.55;2.33;;;7.90;99.90;;;;;;4160486;28;20141;-69
2021/03/13 00:45:01;;;;;;;7.97;2.15;;;7.90;99.90;;;;;;4157611;28;20021;-69
2021/03/13 00:47:02;;;;;;;6.50;1.83;;;7.90;99.90;;;;;;4160183;28;20034;-69
2021/03/13 00:49:04;;;;;;;10.20;2.33;;;7.90;99.90;;;;;;4157840;28;20040;-69
2021/03/13 00:51:05;;;;;;;8.23;2.50;;;7.90;99.90;;;;;;4159900;28;20474;-69
2021/03/13 00:53:06;;;;;;;8.40;1.75;;;7.90;99.90;;;;;;4157031;28;20040;-69
2021/03/13 00:55:09;;;;;;;9.02;2.10;;;7.90;99.90;;;;;;4158060;28;20022;-69
2021/03/13 00:57:10;;;;;;;5.10;2.00;;;7.90;99.90;;;;;;4157656;28;20038;-69
2021/03/13 00:59:11;;;;;;;12.50;2.78;;;7.90;99.90;;;;;;4157201;28;20048;-69
2021/03/13 01:01:11;;;;;;;5.57;1.80;;;7.90;99.90;;;;;;4155552;28;20034;-69
2021/03/13 01:03:12;;;;;;;9.50;2.25;;;7.90;99.90;;;;;;4148958;28;20033;-69
2021/03/13 01:05:13;;;;;;;10.15;2.63;;;7.90;99.90;;;;;;4158777;28;20033;-69
2021/03/13 01:07:14;;;;;;;7.70;2.30;;;7.80;99.90;;;;;;4159952;28;20041;-69
2021/03/13 01:09:15;;;;;;;10.65;2.17;;;7.80;99.90;;;;;;4137838;28;20176;-69
2021/03/13 01:11:16;;;;;;;8.57;2.38;;;7.80;99.90;;;;;;4151759;28;20072;-69
2021/03/13 01:13:19;;;;;;;10.45;2.47;;;7.80;99.90;;;;;;4160062;28;20026;-69
2021/03/13 01:15:22;;;;;;;6.97;2.13;;;7.80;99.90;;;;;;4158598;28;20029;-69
2021/03/13 01:17:23;;;;;;;5.47;2.28;;;7.80;99.90;;;;;;4159577;28;20037;-69
2021/03/13 01:19:23;;;;;;;8.60;2.38;;;7.80;99.90;;;;;;4153247;28;20037;-69
2021/03/13 01:21:24;;;;;;;9.55;2.20;;;7.80;99.90;;;;;;4154905;28;20056;-69
2021/03/13 01:23:25;;;;;;;8.35;2.13;;;7.80;99.90;;;;;;4157191;28;20033;-69
2021/03/13 01:25:26;;;;;;;5.97;2.03;;;7.80;99.90;;;;;;4155335;28;20038;-69
2021/03/13 01:27:27;;;;;;;8.43;2.33;;;7.80;99.90;;;;;;4166333;28;20047;-69
2021/03/13 01:29:27;;;;;;;6.63;2.38;;;7.70;99.90;;;;;;4169340;28;20033;-69
2021/03/13 01:31:28;;;;;;;6.88;1.90;;;7.70;99.90;;;;;;4172640;28;20051;-69
2021/03/13 01:33:29;;;;;;;9.23;2.47;;;7.70;99.90;;;;;;4157043;28;20083;-69
2021/03/13 01:35:30;;;;;;;6.40;2.03;;;7.70;99.90;;;;;;4156929;28;20370;-69
2021/03/13 01:37:30;;;;;;;7.85;2.50;;;7.80;99.90;;;;;;4154498;28;20044;-69
2021/03/13 01:39:31;;;;;;;9.50;2.40;;;7.70;99.90;;;;;;4154952;28;20053;-69
2021/03/13 01:41:32;;;;;;;7.00;2.00;;;7.60;99.90;;;;;;4155484;28;20068;-69
2021/03/13 01:43:33;;;;;;;9.35;2.55;;;7.70;99.90;;;;;;4161948;28;20037;-69
2021/03/13 01:45:33;;;;;;;6.68;2.13;;;7.60;99.90;;;;;;4157959;28;20227;-69
2021/03/13 01:47:34;;;;;;;9.95;2.67;;;7.60;99.90;;;;;;4149583;28;20038;-69
2021/03/13 01:49:36;;;;;;;4.32;1.98;;;7.60;99.90;;;;;;4148407;28;20057;-69
2021/03/13 01:51:37;;;;;;;8.93;2.40;;;7.60;99.90;;;;;;4159100;28;20037;-69
2021/03/13 01:53:37;;;;;;;12.10;2.45;;;7.60;99.90;;;;;;4157246;28;20033;-69
2021/03/13 01:55:41;;;;;;;5.05;1.98;;;7.50;99.90;;;;;;4141333;28;20030;-69
2021/03/13 01:57:42;;;;;;;10.60;2.47;;;7.50;99.90;;;;;;4158414;28;20061;-69
2021/03/13 01:59:42;;;;;;;8.70;2.83;;;7.50;99.90;;;;;;4159158;28;20039;-69
2021/03/13 02:01:44;;;;;;;4.60;2.28;;;7.40;99.90;;;;;;4159516;28;20030;-69
2021/03/13 02:03:45;;;;;;;9.30;2.23;;;7.40;99.90;;;;;;4158075;28;20038;-69
2021/03/13 02:05:47;;;;;;;9.35;2.63;;;7.40;99.90;;;;;;4153538;28;20196;-69
2021/03/13 02:08:06;;;;;;;6.30;2.08;;;7.30;99.90;;;;;;4152467;28;20038;-69
2021/03/13 02:10:32;;;;;;;9.02;2.20;;;7.30;99.90;;;;;;4155887;28;20169;-69
2021/03/13 02:12:48;;;;;;;4.57;1.90;;;7.30;99.90;;;;;;4154938;28;20048;-69
2021/03/13 02:15:19;;;;;;;6.60;2.38;;;7.30;99.90;;;;;;4151305;28;20041;-69
2021/03/13 02:17:34;;;;;;;5.65;2.35;;;7.20;99.90;;;;;;4155510;28;20115;-69
2021/03/13 02:19:37;;;;;;;6.93;2.28;;;7.30;99.90;;;;;;4149593;28;20529;-69
2021/03/13 02:21:43;;;;;;;5.57;2.08;;;7.20;99.90;;;;;;4159502;28;20041;-69
2021/03/13 02:24:08;;;;;;;9.57;2.88;;;7.20;99.90;;;;;;4159326;28;20103;-69
2021/03/13 02:26:23;;;;;;;6.47;2.35;;;7.20;99.90;;;;;;4152081;28;20033;-69
2021/03/13 02:28:45;;;;;;;6.20;2.17;;;7.20;99.90;;;;;;4141325;28;20037;-69
2021/03/13 02:30:46;;;;;;;3.47;1.70;;;7.20;99.90;;;;;;4157543;28;20420;-69
2021/03/13 02:32:59;;;;;;;3.92;1.83;;;7.20;99.90;;;;;;4159189;28;20164;-69
2021/03/13 02:35:05;;;;;;;5.35;2.53;;;7.20;99.90;;;;;;4157417;28;20498;-69
2021/03/13 02:37:17;;;;;;;7.53;2.60;;;7.10;99.90;;;;;;4161915;28;20040;-69
2021/03/13 02:39:22;;;;;;;5.38;2.28;;;7.10;99.90;;;;;;4162202;28;20034;-69
2021/03/13 02:41:34;;;;;;;3.67;2.00;;;7.10;99.90;;;;;;4162537;28;20436;-69
2021/03/13 02:43:37;;;;;;;5.25;2.17;;;7.20;99.90;;;;;;4143752;28;20041;-69
2021/03/13 02:45:44;;;;;;;5.75;2.40;;;7.10;99.90;;;;;;4156201;28;20022;-69
2021/03/13 02:47:45;;;;;;;4.70;2.22;;;7.20;99.90;;;;;;4160939;28;20045;-69
2021/03/13 02:49:49;;;;;;;6.72;2.60;;;7.10;99.90;;;;;;4162028;28;20029;-69
2021/03/13 02:51:52;;;;;;;6.40;2.20;;;7.10;99.90;;;;;;4162431;28;20464;-69
2021/03/13 02:53:55;;;;;;;9.13;2.65;;;7.10;99.90;;;;;;4160804;28;20643;-69
2021/03/13 02:55:56;;;;;;;;;;;7.10;99.90;;;;;;4160118;28;20064;-69
2021/03/13 02:57:59;;;;;;;5.55;2.40;;;7.10;99.90;;;;;;4160839;28;19913;-69
2021/03/13 03:00:01;;;;;;;5.97;2.00;;;7.10;99.90;;;;;;4160756;28;20037;-69
2021/03/13 03:02:05;;;;;;;5.00;2.15;;;7.10;99.90;;;;;;4161748;28;20057;-69
2021/03/13 03:04:07;;;;;;;5.55;2.20;;;7.10;99.90;;;;;;4158663;28;20042;-69
2021/03/13 03:06:09;;;;;;;5.00;2.42;;;7.10;99.90;;;;;;4157099;28;20049;-69
2021/03/13 03:08:10;;;;;;;4.00;1.90;;;7.10;99.90;;;;;;4160487;28;20041;-69
2021/03/13 03:10:14;;;;;;;4.00;2.08;;;7.10;99.90;;;;;;4161486;28;20037;-69
2021/03/13 03:12:15;;;;;;;4.25;2.13;;;7.10;99.90;;;;;;4161402;28;20505;-69
2021/03/13 03:14:17;;;;;;;5.93;2.17;;;7.10;99.90;;;;;;4161629;28;20026;-69
2021/03/13 03:16:21;;;;;;;4.40;1.90;;;7.10;99.90;;;;;;4160222;28;20101;-69
2021/03/13 03:18:25;;;;;;;3.58;1.63;;;7.10;99.90;;;;;;4162232;28;20038;-69
2021/03/13 03:20:28;;;;;;;3.80;1.80;;;7.10;99.90;;;;;;4150985;28;20053;-69
2021/03/13 03:22:31;;;;;;;5.53;1.88;;;7.10;99.90;;;;;;4161596;28;20034;-69
2021/03/13 03:24:33;;;;;;;4.22;1.85;;;7.10;99.90;;;;;;4147006;28;20040;-69
2021/03/13 03:26:37;;;;;;;4.55;1.63;;;7.10;99.90;;;;;;4155390;28;20042;-67
2021/03/13 03:28:37;;;;;;;4.47;1.75;;;7.10;99.90;;;;;;4158919;28;20033;-67
2021/03/13 03:30:38;;;;;;;3.80;1.90;;;7.10;99.90;;;;;;4155965;28;20046;-67
2021/03/13 03:32:39;;;;;;;2.78;1.83;;;7.10;99.90;;;;;;4155610;28;20042;-69
2021/03/13 03:34:39;;;;;;;4.82;1.73;;;7.10;99.90;;;;;;4161727;28;20120;-69
2021/03/13 03:36:40;;;;;;;4.05;1.70;;;7.10;99.90;;;;;;4161449;28;20064;-69
2021/03/13 03:38:41;;;;;;;4.30;1.65;;;7.10;99.90;;;;;;4160318;28;20041;-69
2021/03/13 03:40:42;;;;;;;4.78;1.77;;;7.10;99.90;;;;;;4142436;28;20543;-69
2021/03/13 03:43:03;;;;;;;4.35;1.60;;;7.10;99.90;;;;;;4151017;28;20120;-69
2021/03/13 03:45:05;;;;;;;6.35;1.75;;;7.20;99.90;;;;;;4159583;28;20042;-69
2021/03/13 03:47:08;;;;;;;4.32;1.67;;;7.20;99.90;;;;;;4161274;28;20458;-69
2021/03/13 03:49:13;;;;;;;5.55;1.58;;;7.20;99.90;;;;;;4161701;28;20524;-69
2021/03/13 03:51:14;;;;;;;6.68;2.03;;;7.20;99.90;;;;;;4161021;28;20029;-69
2021/03/13 03:53:21;;;;;;;5.90;1.52;;;7.20;99.90;;;;;;4160683;28;20096;-69
2021/03/13 03:55:23;;;;;;;3.95;1.48;;;7.20;99.90;;;;;;4161835;28;20032;-69
2021/03/13 03:57:26;;;;;;;6.32;1.80;;;7.20;99.90;;;;;;4159374;28;20415;-69
2021/03/13 03:59:28;;;;;;;7.13;1.88;;;7.20;99.90;;;;;;4161026;28;20138;-69
2021/03/13 04:01:31;;;;;;;5.75;1.65;;;7.20;99.90;;;;;;4160824;28;20052;-69
2021/03/13 04:03:32;;;;;;;3.83;1.65;;;7.30;99.90;;;;;;4149427;28;20452;-69
2021/03/13 04:05:33;;;;;;;3.40;1.48;;;7.30;99.90;;;;;;4159191;28;20038;-69
2021/03/13 04:07:35;;;;;;;4.28;1.77;;;7.20;99.90;;;;;;4158678;28;20060;-69
2021/03/13 04:09:38;;;;;;;5.23;1.70;;;7.30;99.90;;;;;;4161010;28;20072;-69
2021/03/13 04:11:40;;;;;;;;;;;7.40;99.90;;;;;;4159162;28;20064;-69
2021/03/13 04:13:42;;;;;;;3.42;1.42;;;7.30;99.90;;;;;;4161015;28;19909;-69
2021/03/13 04:15:44;;;;;;;6.20;1.55;;;7.30;99.90;;;;;;4155540;28;20049;-69
2021/03/13 04:17:46;;;;;;;3.13;1.45;;;7.40;99.90;;;;;;4159853;28;20405;-69
2021/03/13 04:19:46;;;;;;;5.68;1.95;;;7.40;99.90;;;;;;4157142;28;20726;-69
2021/03/13 04:21:48;;;;;;;3.00;1.30;;;7.40;99.90;;;;;;4159714;28;20041;-67
2021/03/13 04:23:48;;;;;;;4.10;1.58;;;7.40;99.90;;;;;;4160604;28;20103;-67
2021/03/13 04:25:52;;;;;;;4.03;1.20;;;7.40;99.90;;;;;;4155063;28;20477;-67
2021/03/13 04:27:53;;;;;;;4.82;1.27;;;7.40;99.90;;;;;;4157034;28;20029;-69
2021/03/13 04:29:54;;;;;;;5.75;1.73;;;7.40;99.90;;;;;;4160485;28;20114;-69
2021/03/13 04:31:55;;;;;;;3.78;1.35;;;7.50;99.90;;;;;;4158976;28;20115;-69
2021/03/13 04:33:58;;;;;;;10.73;1.52;;;7.50;99.90;;;;;;4160576;28;20037;-69
2021/03/13 04:35:59;;;;;;;4.68;1.30;;;7.50;99.90;;;;;;4159361;28;20061;-69
2021/03/13 04:38:00;;;;;;;6.32;1.38;;;7.50;99.90;;;;;;4159478;28;20073;-69
2021/03/13 04:40:01;;;;;;;2.65;0.88;;;7.50;99.90;;;;;;4159049;28;20032;-69
2021/03/13 04:42:04;;;;;;;5.68;1.38;;;7.50;99.90;;;;;;4159980;28;20034;-69
2021/03/13 04:44:05;;;;;;;5.55;1.40;;;7.60;99.90;;;;;;4161025;28;20029;-69
2021/03/13 04:46:06;;;;;;;7.28;1.77;;;7.50;99.90;;;;;;4157771;28;20037;-69
2021/03/13 04:48:10;;;;;;;3.53;1.17;;;7.50;99.90;;;;;;4154207;28;20041;-69
2021/03/13 04:50:13;;;;;;;6.93;1.50;;;7.60;99.90;;;;;;4156191;28;20038;-69
2021/03/13 04:52:17;;;;;;;6.38;1.65;;;7.60;99.90;;;;;;4153027;28;20435;-69
2021/03/13 04:54:17;;;;;;;7.47;1.30;;;7.60;99.90;;;;;;4162970;28;20060;-69
2021/03/13 04:56:18;;;;;;;8.20;1.10;;;7.60;99.90;;;;;;4160415;28;20033;-69
2021/03/13 04:58:18;;;;;;;8.38;1.50;;;7.60;99.90;;;;;;4159480;28;20025;-69
2021/03/13 05:00:19;;;;;;;6.30;1.38;;;7.60;99.90;;;;;;4160340;28;20025;-69
2021/03/13 05:02:20;;;;;;;3.50;1.00;;;7.60;99.90;;;;;;4151546;28;20123;-69
2021/03/13 05:04:21;;;;;;;5.00;1.10;;;7.60;99.90;;;;;;4154862;28;20041;-69
2021/03/13 05:06:21;;;;;;;3.30;1.13;;;7.60;99.90;;;;;;4159729;28;20041;-69
2021/03/13 05:08:22;;;;;;;3.10;1.02;;;7.60;99.90;;;;;;4158446;28;20053;-69
2021/03/13 05:10:22;;;;;;;4.28;1.42;;;7.60;99.90;;;;;;4160488;28;20037;-69
2021/03/13 05:12:23;;;;;;;5.50;1.30;;;7.60;99.90;;;;;;4156799;28;20575;-69
2021/03/13 05:14:24;;;;;;;2.70;0.93;;;7.70;99.90;;;;;;4159451;28;20038;-69
2021/03/13 05:16:24;;;;;;;4.50;0.80;;;7.70;99.90;;;;;;4160242;28;20034;-69
2021/03/13 05:18:25;;;;;;;4.40;0.93;;;7.70;99.90;;;;;;4156574;28;20480;-69
2021/03/13 05:20:26;;;;;;;3.35;1.17;;;7.70;99.90;;;;;;4158821;28;20068;-69
2021/03/13 05:22:26;;;;;;;3.88;1.15;;;7.70;99.90;;;;;;4157229;28;20095;-67
2021/03/13 05:24:27;;;;;;;3.40;1.23;;;7.70;99.90;;;;;;4158406;28;20091;-67
2021/03/13 05:26:28;;;;;;;4.82;1.35;;;7.80;99.90;;;;;;4155189;28;20486;-66
2021/03/13 05:28:28;;;;;;;2.60;0.95;;;7.70;99.90;;;;;;4157913;28;20545;-67
2021/03/13 05:30:29;;;;;;;3.72;0.77;;;7.80;99.90;;;;;;4156991;28;20505;-67
2021/03/13 05:32:30;;;;;;;4.70;0.65;;;7.80;99.90;;;;;;4157277;28;20061;-69
2021/03/13 05:34:31;;;;;;;4.13;1.33;;;7.80;99.90;;;;;;4156891;28;20087;-69
2021/03/13 05:36:31;;;;;;;4.78;1.23;;;7.80;99.90;;;;;;4157334;28;20112;-69
2021/03/13 05:38:32;;;;;;;3.53;0.90;;;7.80;99.90;;;;;;4157673;28;20075;-69
2021/03/13 05:40:33;;;;;;;1.70;0.70;;;7.80;99.90;;;;;;4158369;28;20097;-69
2021/03/13 05:42:36;;;;;;;4.28;1.20;;;7.80;99.90;;;;;;4156485;28;20034;-69
2021/03/13 05:44:38;;;;;;;3.17;0.82;;;7.80;99.90;;;;;;4157964;28;20048;-69
2021/03/13 05:46:44;;;;;;;3.75;1.02;;;7.80;99.90;;;;;;4156324;28;20029;-69
2021/03/13 05:48:45;;;;;;;3.85;1.20;;;7.80;99.90;;;;;;4156655;28;20041;-69
2021/03/13 05:50:47;;;;;;;3.85;1.42;;;7.90;99.90;;;;;;4154369;28;20057;-69
2021/03/13 05:52:54;;;;;;;6.53;1.23;;;7.90;99.90;;;;;;4157536;28;20120;-69
2021/03/13 05:54:54;;;;;;;4.15;1.10;;;7.90;99.90;;;;;;4155687;28;20030;-69
2021/03/13 05:56:58;;;;;;;3.17;0.85;;;7.90;99.90;;;;;;4157676;28;20048;-69
2021/03/13 05:58:59;;;;;;;5.45;1.33;;;7.90;99.90;;;;;;4156810;28;20420;-69
2021/03/13 06:01:00;;;;;;;3.38;1.10;;;7.90;99.90;;;;;;4156384;28;20037;-69
2021/03/13 06:03:01;;;;;;;4.43;1.33;;;7.90;99.90;;;;;;4158160;28;20033;-69
2021/03/13 06:05:03;;;;;;;5.20;1.15;;;8.00;99.90;;;;;;4157005;28;20513;-69
2021/03/13 06:07:04;;;;;;;4.87;1.13;;;8.00;99.90;;;;;;4157408;28;20033;-69
2021/03/13 06:09:06;;;;;;;4.95;1.25;;;8.00;99.90;;;;;;4156853;28;20026;-69
2021/03/13 06:11:06;;;;;;;4.82;1.27;;;8.00;99.90;;;;;;4149548;28;20033;-69
2021/03/13 06:13:07;;;;;;;6.68;1.45;;;8.00;99.90;;;;;;4149287;28;20036;-69
2021/03/13 06:15:09;;;;;;;3.67;0.90;;;8.00;99.90;;;;;;4160396;28;20473;-69
2021/03/13 06:17:10;;;;;;;5.88;1.48;;;8.00;99.90;;;;;;4152322;28;20136;-69
2021/03/13 06:19:10;;;;;;;3.30;0.90;;;8.10;99.90;;;;;;4157148;28;20037;-69
2021/03/13 06:21:33;;;;;;;5.68;1.05;;;8.10;99.90;;;;;;4155167;28;20037;-69
2021/03/13 06:23:34;;;;;;;5.05;1.30;;;8.10;99.90;;;;;;4166546;28;20042;-69
2021/03/13 06:25:37;;;;;;;6.35;1.10;;;8.10;99.90;;;;;;4159435;28;20080;-69
2021/03/13 06:27:38;;;;;;;3.72;1.20;;;8.20;99.90;;;;;;4159678;28;20045;-69
2021/03/13 06:29:39;;;;;;;4.43;1.25;;;8.20;99.90;;;;;;4161251;28;20278;-69
2021/03/13 06:31:40;;;;;;;5.97;1.40;;;8.20;99.90;;;;;;4161601;28;20053;-69
2021/03/13 06:33:41;;;;;;;4.53;1.10;;;8.20;99.90;;;;;;4160945;28;20037;-69
2021/03/13 06:35:42;;;;;;;3.17;0.85;;;8.20;99.90;;;;;;4161853;28;20057;-69
2021/03/13 06:38:14;;;;;;;5.38;1.13;;;8.20;99.90;;;;;;4157438;28;20060;-69
2021/03/13 06:40:36;;;;;;;4.65;1.42;;;8.20;99.90;;;;;;4160422;28;20038;-69
2021/03/13 06:42:37;;;;;;;3.53;1.10;;;8.20;99.90;;;;;;4157871;28;20045;-69
2021/03/13 06:45:03;;;;;;;3.67;1.13;;;8.20;99.90;;;;;;4160921;28;20422;-69
2021/03/13 06:47:03;;;;;;;4.95;1.33;;;8.30;99.90;;;;;;4160196;28;20420;-69
2021/03/13 06:49:04;;;;;;;4.93;0.77;;;8.30;99.90;;;;;;4161424;28;20025;-69
2021/03/13 06:51:25;;;;;;;4.07;1.10;;;8.30;99.90;;;;;;4161096;28;20036;-69
2021/03/13 06:53:25;;;;;;;2.35;0.88;;;8.30;99.90;;;;;;4160180;28;20087;-69
2021/03/13 06:55:26;;;;;;;6.00;1.17;;;8.30;99.90;;;;;;4158676;28;20464;-69
2021/03/13 06:57:27;;;;;;;4.70;0.77;;;8.30;99.90;;;;;;4156376;28;20042;-69
2021/03/13 06:59:32;;;;;;;4.00;1.00;;;8.30;99.90;;;;;;4159652;28;20030;-69
2021/03/13 07:01:33;;;;;;;2.88;0.90;;;8.30;99.90;;;;;;4155895;28;20052;-69
2021/03/13 07:03:49;;;;;;;5.35;1.17;;;8.30;99.90;;;;;;4155849;28;20033;-69
2021/03/13 07:05:49;;;;;;;4.32;0.90;;;8.30;99.90;;;;;;4159098;28;20037;-69
2021/03/13 07:07:51;;;;;;;4.25;0.90;;;8.30;99.90;;;;;;4159853;28;20037;-69
2021/03/13 07:09:56;;;;;;;10.35;1.25;;;8.30;99.90;;;;;;4158522;28;20042;-69
2021/03/13 07:11:57;;;;;;;8.63;1.40;;;7.90;99.90;;;;;;4151310;28;20068;-69
2021/03/13 07:13:58;;;;;;;5.57;0.60;;;7.20;99.90;;;;;;4156653;28;20032;-70
2021/03/13 07:16:24;;;;;;;6.07;0.98;;;7.00;99.90;;;;;;4143759;28;20025;-69
2021/03/13 07:18:25;;;;;;;3.15;0.80;;;6.90;99.90;;;;;;4151448;28;20038;-69
2021/03/13 07:20:31;;;;;;;4.07;0.80;;;6.90;99.90;;;;;;4141588;28;20034;-69
2021/03/13 07:22:32;;;;;;;4.72;1.20;;;6.90;99.90;;;;;;4176487;28;20068;-71
2021/03/13 07:24:35;;;;;;;6.10;0.82;;;6.90;99.90;;;;;;4154156;28;20035;-70
2021/03/13 07:26:37;;;;;;;;;;;6.90;99.90;;;;;;4156135;28;20089;-70
2021/03/13 07:28:42;;;;;;;2.07;0.73;;;6.90;99.90;;;;;;4157285;28;19916;-70
2021/03/13 07:30:42;;;;;;;3.70;0.80;;;6.90;99.90;;;;;;4158336;28;20030;-70
2021/03/13 07:32:59;;;;;;;3.47;0.70;;;7.00;99.90;;;;;;4158070;28;20505;-69
2021/03/13 07:35:07;;;;;;;1.52;0.63;;;7.00;99.90;;;;;;4152174;28;20470;-69
2021/03/13 07:37:15;;;;;;;4.10;1.40;;;7.00;99.90;;;;;;4159318;28;20100;-69
2021/03/13 07:39:18;;;;;;;2.00;0.60;;;7.00;99.90;;;;;;4155751;28;20030;-69
2021/03/13 07:41:20;;;;;;;1.65;0.50;;;7.10;99.90;;;;;;4157689;28;20092;-69
2021/03/13 07:43:22;;;;;;;2.70;0.70;;;7.10;99.90;;;;;;4159673;28;20041;-69
2021/03/13 07:45:23;;;;;;;6.72;2.15;;;7.10;99.90;;;;;;4160540;28;20091;-69
2021/03/13 07:47:27;;;;;;;8.60;2.40;;;7.20;99.90;;;;;;4158012;28;20025;-69
2021/03/13 07:49:32;;;;;;;12.40;3.67;;;7.20;99.90;;;;;;4142050;28;20026;-69
2021/03/13 07:51:33;;;;;;;16.63;7.03;;;7.20;99.90;;;;;;4156418;28;20037;-69
2021/03/13 07:53:43;;;;;;;2.63;1.10;;;7.30;99.90;;;;;;4154983;28;20577;-69
2021/03/13 07:55:50;;;;;;;7.53;1.58;;;7.40;99.90;;;;;;4154234;28;20117;-69
2021/03/13 07:57:52;;;;;;;4.38;1.50;;;7.40;99.90;;;;;;4164156;28;22628;-69
2021/03/13 07:59:53;;;;;;;2.80;0.88;;;7.50;99.90;;;;;;4155145;28;20548;-69
2021/03/13 08:01:53;;;;;;;3.80;1.30;;;7.50;99.90;;;;;;4158706;28;20046;-69
2021/03/13 08:03:54;;;;;;;5.40;1.10;;;7.60;99.90;;;;;;4159870;28;20083;-69
2021/03/13 08:06:02;;;;;;;2.30;0.85;;;7.60;99.90;;;;;;4155795;28;20091;-69
2021/03/13 08:08:06;;;;;;;2.40;1.00;;;7.60;99.90;;;;;;4156784;28;20041;-69
2021/03/13 08:10:07;;;;;;;4.03;1.00;;;7.70;99.90;;;;;;4156775;28;20041;-69
2021/03/13 08:12:08;;;;;;;3.85;0.80;;;7.70;99.90;;;;;;4155672;28;20473;-69
2021/03/13 08:14:09;;;;;;;5.75;1.42;;;7.70;99.90;;;;;;4157698;28;20350;-69
2021/03/13 08:16:11;;;;;;;5.53;1.00;;;7.70;99.90;;;;;;4159603;28;20052;-69
2021/03/13 08:18:44;;;;;;;4.13;0.80;;;7.80;99.90;;;;;;4157315;28;20060;-69
2021/03/13 08:20:44;;;;;;;4.80;1.17;;;7.80;99.90;;;;;;4157755;28;20068;-69
2021/03/13 08:23:05;;;;;;;6.63;2.20;;;7.80;99.90;;;;;;4156576;28;20041;-69
2021/03/13 08:25:27;;;;;;;8.25;1.30;;;7.80;99.90;;;;;;4150207;28;20505;-69
2021/03/13 08:27:33;;;;;;;5.50;1.45;;;7.80;99.90;;;;;;4156939;28;20555;-69
2021/03/13 08:30:16;;;;;;;5.38;1.00;;;7.90;99.90;;;;;;4154458;28;20511;-69
2021/03/13 08:32:17;;;;;;;4.47;1.15;;;7.90;99.90;;;;;;4153908;28;20457;-69
2021/03/13 08:34:18;;;;;;;3.97;1.15;;;7.90;99.90;;;;;;4157240;28;20041;-68
2021/03/13 08:36:23;;;;;;;4.90;1.15;;;7.90;99.90;;;;;;4158020;28;20113;-68
2021/03/13 08:39:01;;;;;;;5.28;1.15;;;7.90;99.90;;;;;;4159944;28;20030;-69
2021/03/13 08:41:01;;;;;;;6.63;1.23;;;7.90;99.90;;;;;;4117061;28;20062;-69
2021/03/13 08:43:32;;;;;;;3.92;1.13;;;8.00;99.90;;;;;;4146697;28;20416;-69
2021/03/13 08:45:34;;;;;;;5.13;1.10;;;8.00;99.90;;;;;;4154810;28;20625;-69
2021/03/13 08:47:42;;;;;;;10.80;2.72;;;8.00;99.90;;;;;;4159331;28;20083;-69
2021/03/13 08:49:48;;;;;;;5.40;1.40;;;8.00;99.90;;;;;;4158998;28;20060;-69
2021/03/13 08:52:03;;;;;;;6.55;1.42;;;8.00;99.90;;;;;;4154861;28;20413;-69
2021/03/13 08:54:04;;;;;;;6.25;1.40;;;8.10;99.90;;;;;;4156767;28;20040;-69
2021/03/13 08:56:35;;;;;;;5.63;1.05;;;8.10;99.90;;;;;;4157675;28;20033;-68
2021/03/13 08:58:45;;;;;;;7.35;2.03;;;8.10;99.90;;;;;;4157357;28;20046;-69
2021/03/13 09:00:45;;;;;;;4.13;1.30;;;8.20;99.90;;;;;;4136677;28;20030;-69
2021/03/13 09:02:49;;;;;;;6.65;1.35;;;8.20;99.90;;;;;;4154684;28;20033;-69
2021/03/13 09:04:52;;;;;;;7.70;2.13;;;8.10;99.90;;;;;;4155366;28;20038;-69
2021/03/13 09:06:53;;;;;;;;;;;8.20;99.90;;;;;;4159098;28;20056;-69
2021/03/13 09:09:14;;;;;;;7.45;1.70;;;8.20;99.90;;;;;;4159333;28;19909;-69
2021/03/13 09:11:27;;;;;;;7.43;1.70;;;8.30;99.90;;;;;;4151543;28;20480;-69
2021/03/13 09:13:28;;;;;;;7.13;1.83;;;8.20;99.90;;;;;;4155844;28;20038;-69
2021/03/13 09:15:28;;;;;;;5.28;1.30;;;8.30;99.90;;;;;;4157750;28;20116;-69
2021/03/13 09:17:31;;;;;;;5.15;1.30;;;8.30;99.90;;;;;;4158822;28;20037;-69
2021/03/13 09:19:31;;;;;;;7.05;1.42;;;8.20;99.90;;;;;;4155425;28;20489;-69
2021/03/13 09:21:40;;;;;;;5.95;1.48;;;8.30;99.90;;;;;;4160458;28;20049;-69
2021/03/13 09:23:40;;;;;;;5.22;1.17;;;8.30;99.90;;;;;;4158561;28;20036;-69
2021/03/13 09:25:42;;;;;;;3.17;1.10;;;8.30;99.90;;;;;;4156316;28;20033;-69
2021/03/13 09:27:43;;;;;;;6.38;1.35;;;8.40;99.90;;;;;;4153026;28;20505;-69
2021/03/13 09:29:44;;;;;;;5.22;1.25;;;8.40;99.90;;;;;;4157126;28;20047;-69
2021/03/13 09:31:44;;;;;;;5.00;1.60;;;8.40;99.90;;;;;;4158347;28;20033;-69
2021/03/13 09:33:45;;;;;;;5.20;1.67;;;8.50;99.90;;;;;;4158247;28;20030;-69
2021/03/13 09:35:45;;;;;;;6.03;1.60;;;8.50;99.90;;;;;;4159210;28;20033;-69
2021/03/13 09:37:46;;;;;;;8.63;2.08;;;8.50;99.90;;;;;;4157251;28;20033;-69
2021/03/13 09:39:49;;;;;;;9.52;1.73;;;8.60;99.90;;;;;;4157364;28;20065;-69
2021/03/13 09:42:11;;;;;;;4.90;1.90;;;8.60;99.90;;;;;;4153478;28;20041;-69
2021/03/13 09:44:33;;;;;;;8.90;1.70;;;8.50;99.90;;;;;;4153366;28;20029;-69
2021/03/13 09:46:33;;;;;;;5.22;1.77;;;8.70;99.90;;;;;;4156904;28;20452;-69
2021/03/13 09:48:34;;;;;;;9.88;1.90;;;8.70;99.90;;;;;;4156577;28;20116;-69
2021/03/13 09:50:38;;;;;;;8.85;1.85;;;8.80;99.90;;;;;;4156880;28;20029;-69
2021/03/13 09:52:45;;;;;;;8.63;1.50;;;8.90;99.90;;;;;;4157419;28;20421;-69
2021/03/13 09:54:46;;;;;;;8.40;1.60;;;9.10;99.90;;;;;;4158542;28;20030;-69
2021/03/13 09:56:47;;;;;;;8.25;1.80;;;9.20;99.90;;;;;;4158636;28;20092;-69
2021/03/13 09:58:56;;;;;;;9.60;2.10;;;9.30;99.90;;;;;;4157057;28;20037;-69
2021/03/13 10:00:57;;;;;;;8.35;2.03;;;9.50;99.90;;;;;;4155994;28;20362;-69
2021/03/13 10:03:00;;;;;;;18.45;2.75;;;9.60;99.90;;;;;;4156312;28;20040;-69
2021/03/13 10:05:01;;;;;;;6.93;1.48;;;9.50;99.90;;;;;;4158185;28;20124;-68
2021/03/13 10:07:01;;;;;;;9.48;1.98;;;9.60;99.90;;;;;;4157347;28;20156;-69
2021/03/13 10:09:03;;;;;;;10.80;2.35;;;9.60;99.90;;;;;;4158101;28;20068;-69
2021/03/13 10:11:04;;;;;;;8.18;2.25;;;9.60;99.90;;;;;;4156674;28;20032;-69
2021/03/13 10:13:06;;;;;;;9.83;2.50;;;9.50;99.90;;;;;;4158227;28;20048;-69
2021/03/13 10:15:15;;;;;;;14.30;2.73;;;9.40;99.90;;;;;;4158433;28;20072;-68
2021/03/13 10:17:16;;;;;;;8.35;2.33;;;9.30;99.90;;;;;;4148993;28;20069;-69
2021/03/13 10:19:39;;;;;;;11.63;2.60;;;9.30;99.90;;;;;;4151252;28;20044;-69
2021/03/13 10:22:14;;;;;;;12.68;2.42;;;9.30;99.90;;;;;;4152716;28;20648;-69
2021/03/13 10:24:15;;;;;;;10.00;2.38;;;9.30;99.90;;;;;;4152967;28;20026;-69
2021/03/13 10:26:16;;;;;;;13.70;2.53;;;9.30;99.90;;;;;;4148080;28;20428;-70
2021/03/13 10:28:16;;;;;;;8.80;2.50;;;9.30;99.90;;;;;;4156417;28;20505;-69
2021/03/13 10:30:17;;;;;;;12.18;2.58;;;9.30;99.90;;;;;;4156803;28;20687;-69
2021/03/13 10:32:24;;;;;;;11.38;2.05;;;9.30;99.90;;;;;;4156109;28;20029;-69
2021/03/13 10:34:35;;;;;;;7.80;2.35;;;9.40;99.90;;;;;;4140125;28;20084;-69
2021/03/13 10:36:44;;;;;;;8.80;2.10;;;9.50;99.90;;;;;;4152949;28;20405;-70
2021/03/13 10:38:46;;;;;;;9.70;1.90;;;9.50;99.90;;;;;;4156285;28;20037;-69
2021/03/13 10:40:49;;;;;;;12.13;3.10;;;9.70;99.90;;;;;;4140341;28;20045;-69
2021/03/13 10:42:50;;;;;;;12.95;2.60;;;9.80;99.90;;;;;;4148306;28;20045;-69
2021/03/13 10:44:53;;;;;;;12.48;2.45;;;9.80;99.90;;;;;;4156538;28;20175;-69
2021/03/13 10:46:54;;;;;;;12.35;2.58;;;9.80;99.90;;;;;;4155278;28;20482;-69
2021/03/13 10:48:54;;;;;;;9.60;2.40;;;9.90;99.90;;;;;;4155708;28;20033;-70
2021/03/13 10:50:55;;;;;;;9.27;1.75;;;9.90;99.90;;;;;;4152237;28;20030;-69
2021/03/13 10:52:56;;;;;;;14.98;2.83;;;9.90;99.90;;;;;;4157519;28;20485;-69
2021/03/13 10:54:57;;;;;;;18.35;2.95;;;10.00;99.90;;;;;;4156166;28;20040;-69